sensor_id;sensor_type;location;lat;lon;timestamp;P1;durP1;ratioP1;P2;durP2;ratioP2
54897;SDS011;40800;52.704;6.398;2023-05-17T00:00:53;21.13;;;18.80;;
54897;SDS011;40800;52.704;6.398;2023-05-17T00:03:19;28.73;;;18.70;;
54897;SDS011;40800;52.704;6.398;2023-05-17T00:05:45;23.10;;;18.83;;
54897;SDS011;40800;52.704;6.398;2023-05-17T00:08:11;22.27;;;18.77;;
54897;SDS011;40800;52.704;6.398;2023-05-17T00:10:36;26.55;;;19.13;;
54897;SDS011;40800;52.704;6.398;2023-05-17T00:13:02;22.00;;;18.70;;
54897;SDS011;40800;52.704;6.398;2023-05-17T00:15:28;19.77;;;17.67;;
54897;SDS011;40800;52.704;6.398;2023-05-17T00:17:53;22.55;;;18.42;;
54897;SDS011;40800;52.704;6.398;2023-05-17T00:20:20;24.60;;;18.50;;
54897;SDS011;40800;52.704;6.398;2023-05-17T00:22:45;26.17;;;18.63;;
54897;SDS011;40800;52.704;6.398;2023-05-17T00:25:11;26.13;;;19.05;;
54897;SDS011;40800;52.704;6.398;2023-05-17T00:27:37;26.33;;;19.50;;
54897;SDS011;40800;52.704;6.398;2023-05-17T00:30:03;21.60;;;18.73;;
54897;SDS011;40800;52.704;6.398;2023-05-17T00:32:29;21.85;;;18.23;;
54897;SDS011;40800;52.704;6.398;2023-05-17T00:34:55;22.98;;;18.67;;
54897;SDS011;40800;52.704;6.398;2023-05-17T00:37:21;21.08;;;18.50;;
54897;SDS011;40800;52.704;6.398;2023-05-17T00:39:46;21.50;;;17.65;;
54897;SDS011;40800;52.704;6.398;2023-05-17T00:42:12;20.52;;;17.75;;
54897;SDS011;40800;52.704;6.398;2023-05-17T00:44:38;22.05;;;17.77;;
54897;SDS011;40800;52.704;6.398;2023-05-17T00:47:04;23.73;;;17.98;;
54897;SDS011;40800;52.704;6.398;2023-05-17T00:49:30;20.65;;;17.80;;
54897;SDS011;40800;52.704;6.398;2023-05-17T00:51:56;21.77;;;16.90;;
54897;SDS011;40800;52.704;6.398;2023-05-17T00:54:22;22.65;;;17.67;;
54897;SDS011;40800;52.704;6.398;2023-05-17T00:56:49;22.50;;;18.33;;
54897;SDS011;40800;52.704;6.398;2023-05-17T00:59:16;22.77;;;17.42;;
54897;SDS011;40800;52.704;6.398;2023-05-17T01:01:42;22.13;;;16.90;;
54897;SDS011;40800;52.704;6.398;2023-05-17T01:04:08;19.65;;;16.55;;
54897;SDS011;40800;52.704;6.398;2023-05-17T01:06:34;23.38;;;16.30;;
54897;SDS011;40800;52.704;6.398;2023-05-17T01:09:01;20.75;;;16.13;;
54897;SDS011;40800;52.704;6.398;2023-05-17T01:11:31;17.55;;;15.30;;
54897;SDS011;40800;52.704;6.398;2023-05-17T01:16:38;20.85;;;15.50;;
54897;SDS011;40800;52.704;6.398;2023-05-17T01:19:19;17.65;;;15.27;;
54897;SDS011;40800;52.704;6.398;2023-05-17T01:25:03;18.42;;;15.70;;
54897;SDS011;40800;52.704;6.398;2023-05-17T01:27:36;19.58;;;15.88;;
54897;SDS011;40800;52.704;6.398;2023-05-17T01:30:07;21.38;;;14.77;;
54897;SDS011;40800;52.704;6.398;2023-05-17T01:32:37;25.13;;;15.93;;
54897;SDS011;40800;52.704;6.398;2023-05-17T01:35:07;22.17;;;16.00;;
54897;SDS011;40800;52.704;6.398;2023-05-17T01:37:33;23.13;;;16.13;;
54897;SDS011;40800;52.704;6.398;2023-05-17T01:39:58;26.80;;;16.23;;
54897;SDS011;40800;52.704;6.398;2023-05-17T01:42:31;19.45;;;15.80;;
54897;SDS011;40800;52.704;6.398;2023-05-17T01:50:47;21.98;;;16.15;;
54897;SDS011;40800;52.704;6.398;2023-05-17T01:53:20;24.00;;;15.55;;
54897;SDS011;40800;52.704;6.398;2023-05-17T01:55:53;25.33;;;16.00;;
54897;SDS011;40800;52.704;6.398;2023-05-17T01:58:25;20.35;;;14.93;;
54897;SDS011;40800;52.704;6.398;2023-05-17T02:00:54;19.05;;;14.73;;
54897;SDS011;40800;52.704;6.398;2023-05-17T02:03:22;22.90;;;15.63;;
54897;SDS011;40800;52.704;6.398;2023-05-17T02:05:48;22.25;;;14.77;;
54897;SDS011;40800;52.704;6.398;2023-05-17T02:08:13;25.50;;;15.13;;
54897;SDS011;40800;52.704;6.398;2023-05-17T02:10:39;23.48;;;14.73;;
54897;SDS011;40800;52.704;6.398;2023-05-17T02:13:04;19.75;;;15.00;;
54897;SDS011;40800;52.704;6.398;2023-05-17T02:15:30;23.40;;;15.32;;
54897;SDS011;40800;52.704;6.398;2023-05-17T02:17:56;25.00;;;15.53;;
54897;SDS011;40800;52.704;6.398;2023-05-17T02:20:22;19.95;;;14.40;;
54897;SDS011;40800;52.704;6.398;2023-05-17T02:22:47;21.65;;;15.68;;
54897;SDS011;40800;52.704;6.398;2023-05-17T02:25:13;22.50;;;15.23;;
54897;SDS011;40800;52.704;6.398;2023-05-17T02:27:40;24.15;;;15.35;;
54897;SDS011;40800;52.704;6.398;2023-05-17T02:30:05;25.40;;;14.98;;
54897;SDS011;40800;52.704;6.398;2023-05-17T02:32:32;22.55;;;16.30;;
54897;SDS011;40800;52.704;6.398;2023-05-17T02:34:57;23.45;;;15.15;;
54897;SDS011;40800;52.704;6.398;2023-05-17T02:37:23;25.33;;;14.95;;
54897;SDS011;40800;52.704;6.398;2023-05-17T02:39:49;27.73;;;15.00;;
54897;SDS011;40800;52.704;6.398;2023-05-17T02:42:15;23.40;;;14.93;;
54897;SDS011;40800;52.704;6.398;2023-05-17T02:44:41;21.97;;;15.43;;
54897;SDS011;40800;52.704;6.398;2023-05-17T02:47:07;22.33;;;14.98;;
54897;SDS011;40800;52.704;6.398;2023-05-17T02:49:32;27.52;;;15.48;;
54897;SDS011;40800;52.704;6.398;2023-05-17T02:51:58;26.75;;;15.60;;
54897;SDS011;40800;52.704;6.398;2023-05-17T02:54:24;26.92;;;16.10;;
54897;SDS011;40800;52.704;6.398;2023-05-17T02:56:50;25.88;;;15.63;;
54897;SDS011;40800;52.704;6.398;2023-05-17T02:59:16;27.75;;;15.65;;
54897;SDS011;40800;52.704;6.398;2023-05-17T03:01:41;22.63;;;14.82;;
54897;SDS011;40800;52.704;6.398;2023-05-17T03:04:07;29.42;;;14.75;;
54897;SDS011;40800;52.704;6.398;2023-05-17T03:06:33;26.38;;;14.98;;
54897;SDS011;40800;52.704;6.398;2023-05-17T03:08:58;25.98;;;14.82;;
54897;SDS011;40800;52.704;6.398;2023-05-17T03:11:24;27.85;;;15.18;;
54897;SDS011;40800;52.704;6.398;2023-05-17T03:13:50;23.23;;;15.40;;
54897;SDS011;40800;52.704;6.398;2023-05-17T03:16:18;28.25;;;15.15;;
54897;SDS011;40800;52.704;6.398;2023-05-17T03:18:44;25.25;;;14.90;;
54897;SDS011;40800;52.704;6.398;2023-05-17T03:21:10;21.92;;;15.10;;
54897;SDS011;40800;52.704;6.398;2023-05-17T03:23:35;23.83;;;15.52;;
54897;SDS011;40800;52.704;6.398;2023-05-17T03:26:01;23.35;;;15.75;;
54897;SDS011;40800;52.704;6.398;2023-05-17T03:28:26;32.22;;;15.45;;
54897;SDS011;40800;52.704;6.398;2023-05-17T03:30:52;24.25;;;15.20;;
54897;SDS011;40800;52.704;6.398;2023-05-17T03:33:18;25.90;;;16.35;;
54897;SDS011;40800;52.704;6.398;2023-05-17T03:35:44;27.83;;;16.10;;
54897;SDS011;40800;52.704;6.398;2023-05-17T03:38:12;21.63;;;14.63;;
54897;SDS011;40800;52.704;6.398;2023-05-17T03:40:38;25.65;;;15.15;;
54897;SDS011;40800;52.704;6.398;2023-05-17T03:43:05;27.17;;;14.80;;
54897;SDS011;40800;52.704;6.398;2023-05-17T03:45:31;21.15;;;15.90;;
54897;SDS011;40800;52.704;6.398;2023-05-17T03:47:57;24.77;;;17.05;;
54897;SDS011;40800;52.704;6.398;2023-05-17T03:50:22;23.38;;;14.07;;
54897;SDS011;40800;52.704;6.398;2023-05-17T03:52:48;20.00;;;15.35;;
54897;SDS011;40800;52.704;6.398;2023-05-17T03:55:13;23.30;;;15.90;;
54897;SDS011;40800;52.704;6.398;2023-05-17T03:57:39;22.17;;;16.10;;
54897;SDS011;40800;52.704;6.398;2023-05-17T04:00:05;25.55;;;17.35;;
54897;SDS011;40800;52.704;6.398;2023-05-17T04:02:34;23.50;;;16.25;;
54897;SDS011;40800;52.704;6.398;2023-05-17T04:05:00;21.42;;;15.90;;
54897;SDS011;40800;52.704;6.398;2023-05-17T04:07:25;21.08;;;15.73;;
54897;SDS011;40800;52.704;6.398;2023-05-17T04:09:52;20.23;;;16.33;;
54897;SDS011;40800;52.704;6.398;2023-05-17T04:12:17;22.27;;;16.45;;
54897;SDS011;40800;52.704;6.398;2023-05-17T04:14:43;23.70;;;17.10;;
54897;SDS011;40800;52.704;6.398;2023-05-17T04:17:08;20.05;;;16.25;;
54897;SDS011;40800;52.704;6.398;2023-05-17T04:19:34;25.60;;;16.23;;
54897;SDS011;40800;52.704;6.398;2023-05-17T04:21:59;22.83;;;16.88;;
54897;SDS011;40800;52.704;6.398;2023-05-17T04:24:25;27.02;;;16.70;;
54897;SDS011;40800;52.704;6.398;2023-05-17T04:26:50;27.35;;;16.30;;
54897;SDS011;40800;52.704;6.398;2023-05-17T04:29:16;25.17;;;16.48;;
54897;SDS011;40800;52.704;6.398;2023-05-17T04:31:42;26.70;;;17.00;;
54897;SDS011;40800;52.704;6.398;2023-05-17T04:34:07;24.08;;;16.38;;
54897;SDS011;40800;52.704;6.398;2023-05-17T04:36:33;20.67;;;16.60;;
54897;SDS011;40800;52.704;6.398;2023-05-17T04:38:59;21.83;;;16.90;;
54897;SDS011;40800;52.704;6.398;2023-05-17T04:41:24;18.27;;;16.13;;
54897;SDS011;40800;52.704;6.398;2023-05-17T04:43:50;24.10;;;17.00;;
54897;SDS011;40800;52.704;6.398;2023-05-17T04:46:15;24.75;;;16.35;;
54897;SDS011;40800;52.704;6.398;2023-05-17T04:48:41;20.45;;;16.05;;
54897;SDS011;40800;52.704;6.398;2023-05-17T04:51:06;19.38;;;17.00;;
54897;SDS011;40800;52.704;6.398;2023-05-17T04:53:32;21.15;;;16.50;;
54897;SDS011;40800;52.704;6.398;2023-05-17T04:55:58;23.80;;;17.10;;
54897;SDS011;40800;52.704;6.398;2023-05-17T04:58:23;18.50;;;16.00;;
54897;SDS011;40800;52.704;6.398;2023-05-17T05:00:50;23.50;;;16.80;;
54897;SDS011;40800;52.704;6.398;2023-05-17T05:03:16;20.98;;;15.95;;
54897;SDS011;40800;52.704;6.398;2023-05-17T05:05:42;19.15;;;16.15;;
54897;SDS011;40800;52.704;6.398;2023-05-17T05:08:08;21.35;;;16.15;;
54897;SDS011;40800;52.704;6.398;2023-05-17T05:10:34;24.52;;;15.38;;
54897;SDS011;40800;52.704;6.398;2023-05-17T05:12:59;21.95;;;15.65;;
54897;SDS011;40800;52.704;6.398;2023-05-17T05:15:25;21.90;;;15.07;;
54897;SDS011;40800;52.704;6.398;2023-05-17T05:17:51;19.98;;;15.43;;
54897;SDS011;40800;52.704;6.398;2023-05-17T05:20:17;18.73;;;15.00;;
54897;SDS011;40800;52.704;6.398;2023-05-17T05:22:42;18.35;;;14.57;;
54897;SDS011;40800;52.704;6.398;2023-05-17T05:25:08;18.90;;;14.68;;
54897;SDS011;40800;52.704;6.398;2023-05-17T05:27:34;15.82;;;13.82;;
54897;SDS011;40800;52.704;6.398;2023-05-17T05:30:00;16.92;;;13.82;;
54897;SDS011;40800;52.704;6.398;2023-05-17T05:32:26;16.63;;;13.88;;
54897;SDS011;40800;52.704;6.398;2023-05-17T05:34:52;41.33;;;14.45;;
54897;SDS011;40800;52.704;6.398;2023-05-17T05:37:17;21.58;;;13.90;;
54897;SDS011;40800;52.704;6.398;2023-05-17T05:39:43;17.10;;;12.73;;
54897;SDS011;40800;52.704;6.398;2023-05-17T05:42:09;15.07;;;12.20;;
54897;SDS011;40800;52.704;6.398;2023-05-17T05:44:35;20.05;;;11.88;;
54897;SDS011;40800;52.704;6.398;2023-05-17T05:47:01;21.00;;;12.25;;
54897;SDS011;40800;52.704;6.398;2023-05-17T05:49:26;16.33;;;11.13;;
54897;SDS011;40800;52.704;6.398;2023-05-17T05:51:52;36.85;;;12.55;;
54897;SDS011;40800;52.704;6.398;2023-05-17T05:54:18;20.50;;;11.23;;
54897;SDS011;40800;52.704;6.398;2023-05-17T05:56:43;20.23;;;10.70;;
54897;SDS011;40800;52.704;6.398;2023-05-17T05:59:09;20.42;;;10.20;;
54897;SDS011;40800;52.704;6.398;2023-05-17T06:01:35;18.30;;;10.20;;
54897;SDS011;40800;52.704;6.398;2023-05-17T06:04:01;22.50;;;9.93;;
54897;SDS011;40800;52.704;6.398;2023-05-17T06:06:27;17.92;;;10.18;;
54897;SDS011;40800;52.704;6.398;2023-05-17T06:08:52;15.05;;;8.90;;
54897;SDS011;40800;52.704;6.398;2023-05-17T06:11:19;14.38;;;9.48;;
54897;SDS011;40800;52.704;6.398;2023-05-17T06:13:45;15.07;;;9.52;;
54897;SDS011;40800;52.704;6.398;2023-05-17T06:16:11;19.60;;;9.15;;
54897;SDS011;40800;52.704;6.398;2023-05-17T06:18:37;11.05;;;8.35;;
54897;SDS011;40800;52.704;6.398;2023-05-17T06:21:02;13.10;;;8.07;;
54897;SDS011;40800;52.704;6.398;2023-05-17T06:23:28;15.48;;;7.70;;
54897;SDS011;40800;52.704;6.398;2023-05-17T06:25:53;14.20;;;8.40;;
54897;SDS011;40800;52.704;6.398;2023-05-17T06:28:19;12.57;;;7.38;;
54897;SDS011;40800;52.704;6.398;2023-05-17T06:30:45;11.35;;;6.85;;
54897;SDS011;40800;52.704;6.398;2023-05-17T06:33:10;14.25;;;7.43;;
54897;SDS011;40800;52.704;6.398;2023-05-17T06:35:36;8.23;;;6.50;;
54897;SDS011;40800;52.704;6.398;2023-05-17T06:38:02;12.27;;;7.18;;
54897;SDS011;40800;52.704;6.398;2023-05-17T06:40:28;8.50;;;6.30;;
54897;SDS011;40800;52.704;6.398;2023-05-17T06:42:54;12.48;;;6.45;;
54897;SDS011;40800;52.704;6.398;2023-05-17T06:45:19;13.48;;;6.55;;
54897;SDS011;40800;52.704;6.398;2023-05-17T06:47:45;13.85;;;6.88;;
54897;SDS011;40800;52.704;6.398;2023-05-17T06:50:11;9.88;;;6.45;;
54897;SDS011;40800;52.704;6.398;2023-05-17T06:52:37;11.80;;;6.45;;
54897;SDS011;40800;52.704;6.398;2023-05-17T06:55:03;11.70;;;6.43;;
54897;SDS011;40800;52.704;6.398;2023-05-17T06:57:29;13.27;;;6.30;;
54897;SDS011;40800;52.704;6.398;2023-05-17T06:59:55;11.18;;;5.72;;
54897;SDS011;40800;52.704;6.398;2023-05-17T07:02:21;11.80;;;6.03;;
54897;SDS011;40800;52.704;6.398;2023-05-17T07:04:46;10.57;;;5.60;;
54897;SDS011;40800;52.704;6.398;2023-05-17T07:07:12;11.00;;;5.40;;
54897;SDS011;40800;52.704;6.398;2023-05-17T07:09:38;9.10;;;5.55;;
54897;SDS011;40800;52.704;6.398;2023-05-17T07:12:04;10.88;;;5.85;;
54897;SDS011;40800;52.704;6.398;2023-05-17T07:14:30;8.90;;;5.80;;
54897;SDS011;40800;52.704;6.398;2023-05-17T07:16:56;10.18;;;5.18;;
54897;SDS011;40800;52.704;6.398;2023-05-17T07:19:22;13.18;;;4.40;;
54897;SDS011;40800;52.704;6.398;2023-05-17T07:21:47;8.85;;;3.53;;
54897;SDS011;40800;52.704;6.398;2023-05-17T07:24:13;10.98;;;3.65;;
54897;SDS011;40800;52.704;6.398;2023-05-17T07:26:38;11.27;;;2.92;;
54897;SDS011;40800;52.704;6.398;2023-05-17T07:29:04;8.48;;;2.90;;
54897;SDS011;40800;52.704;6.398;2023-05-17T07:31:30;10.25;;;2.85;;
54897;SDS011;40800;52.704;6.398;2023-05-17T07:33:56;12.23;;;2.83;;
54897;SDS011;40800;52.704;6.398;2023-05-17T07:36:21;11.40;;;2.47;;
54897;SDS011;40800;52.704;6.398;2023-05-17T07:38:47;9.52;;;2.90;;
54897;SDS011;40800;52.704;6.398;2023-05-17T07:41:12;8.95;;;2.70;;
54897;SDS011;40800;52.704;6.398;2023-05-17T07:43:40;9.00;;;2.50;;
54897;SDS011;40800;52.704;6.398;2023-05-17T07:46:06;13.35;;;3.03;;
54897;SDS011;40800;52.704;6.398;2023-05-17T07:48:32;12.73;;;3.05;;
54897;SDS011;40800;52.704;6.398;2023-05-17T07:50:58;11.70;;;3.25;;
54897;SDS011;40800;52.704;6.398;2023-05-17T07:53:23;11.55;;;3.35;;
54897;SDS011;40800;52.704;6.398;2023-05-17T07:55:49;11.32;;;2.97;;
54897;SDS011;40800;52.704;6.398;2023-05-17T07:58:15;10.57;;;2.75;;
54897;SDS011;40800;52.704;6.398;2023-05-17T08:00:40;11.23;;;2.85;;
54897;SDS011;40800;52.704;6.398;2023-05-17T08:03:06;11.82;;;3.15;;
54897;SDS011;40800;52.704;6.398;2023-05-17T08:05:32;12.07;;;3.17;;
54897;SDS011;40800;52.704;6.398;2023-05-17T08:07:58;11.45;;;2.85;;
54897;SDS011;40800;52.704;6.398;2023-05-17T08:10:24;12.75;;;3.10;;
54897;SDS011;40800;52.704;6.398;2023-05-17T08:12:51;12.77;;;3.20;;
54897;SDS011;40800;52.704;6.398;2023-05-17T08:15:17;12.07;;;3.30;;
54897;SDS011;40800;52.704;6.398;2023-05-17T08:17:42;12.43;;;3.22;;
54897;SDS011;40800;52.704;6.398;2023-05-17T08:20:08;11.95;;;3.03;;
54897;SDS011;40800;52.704;6.398;2023-05-17T08:22:34;12.00;;;3.13;;
54897;SDS011;40800;52.704;6.398;2023-05-17T08:25:01;9.65;;;2.70;;
54897;SDS011;40800;52.704;6.398;2023-05-17T08:27:27;14.48;;;3.17;;
54897;SDS011;40800;52.704;6.398;2023-05-17T08:29:55;12.70;;;3.60;;
54897;SDS011;40800;52.704;6.398;2023-05-17T08:32:21;12.20;;;3.60;;
54897;SDS011;40800;52.704;6.398;2023-05-17T08:34:47;9.43;;;2.50;;
54897;SDS011;40800;52.704;6.398;2023-05-17T08:37:13;9.70;;;2.90;;
54897;SDS011;40800;52.704;6.398;2023-05-17T08:39:39;14.13;;;3.40;;
54897;SDS011;40800;52.704;6.398;2023-05-17T08:42:07;13.25;;;3.35;;
54897;SDS011;40800;52.704;6.398;2023-05-17T08:44:34;10.40;;;2.83;;
54897;SDS011;40800;52.704;6.398;2023-05-17T08:47:00;11.40;;;3.13;;
54897;SDS011;40800;52.704;6.398;2023-05-17T08:49:29;8.82;;;2.80;;
54897;SDS011;40800;52.704;6.398;2023-05-17T08:51:58;10.75;;;2.65;;
54897;SDS011;40800;52.704;6.398;2023-05-17T08:54:24;13.88;;;3.03;;
54897;SDS011;40800;52.704;6.398;2023-05-17T08:56:51;9.25;;;2.58;;
54897;SDS011;40800;52.704;6.398;2023-05-17T08:59:19;11.93;;;3.40;;
54897;SDS011;40800;52.704;6.398;2023-05-17T09:01:48;12.02;;;3.00;;
54897;SDS011;40800;52.704;6.398;2023-05-17T09:04:16;12.32;;;2.80;;
54897;SDS011;40800;52.704;6.398;2023-05-17T09:06:42;9.88;;;2.97;;
54897;SDS011;40800;52.704;6.398;2023-05-17T09:09:08;10.45;;;2.65;;
54897;SDS011;40800;52.704;6.398;2023-05-17T09:11:34;11.27;;;2.95;;
54897;SDS011;40800;52.704;6.398;2023-05-17T09:14:01;10.57;;;3.20;;
54897;SDS011;40800;52.704;6.398;2023-05-17T09:16:31;11.23;;;2.75;;
54897;SDS011;40800;52.704;6.398;2023-05-17T09:18:59;51.70;;;4.97;;
54897;SDS011;40800;52.704;6.398;2023-05-17T09:21:25;18.45;;;3.70;;
54897;SDS011;40800;52.704;6.398;2023-05-17T09:23:52;18.15;;;3.50;;
54897;SDS011;40800;52.704;6.398;2023-05-17T09:28:45;12.63;;;3.20;;
54897;SDS011;40800;52.704;6.398;2023-05-17T09:31:13;11.80;;;2.90;;
54897;SDS011;40800;52.704;6.398;2023-05-17T09:33:44;10.10;;;3.35;;
54897;SDS011;40800;52.704;6.398;2023-05-17T09:36:15;9.82;;;2.80;;
54897;SDS011;40800;52.704;6.398;2023-05-17T09:41:20;11.50;;;2.88;;
54897;SDS011;40800;52.704;6.398;2023-05-17T09:43:50;9.85;;;2.97;;
54897;SDS011;40800;52.704;6.398;2023-05-17T09:46:18;12.07;;;2.60;;
54897;SDS011;40800;52.704;6.398;2023-05-17T09:48:44;8.82;;;2.50;;
54897;SDS011;40800;52.704;6.398;2023-05-17T09:51:10;7.80;;;2.50;;
54897;SDS011;40800;52.704;6.398;2023-05-17T09:53:36;9.13;;;2.53;;
54897;SDS011;40800;52.704;6.398;2023-05-17T09:56:06;10.63;;;2.90;;
54897;SDS011;40800;52.704;6.398;2023-05-17T09:58:35;13.38;;;2.95;;
54897;SDS011;40800;52.704;6.398;2023-05-17T10:01:03;12.10;;;3.17;;
54897;SDS011;40800;52.704;6.398;2023-05-17T10:03:34;10.85;;;3.08;;
54897;SDS011;40800;52.704;6.398;2023-05-17T10:06:01;11.10;;;3.03;;
54897;SDS011;40800;52.704;6.398;2023-05-17T10:08:30;10.43;;;3.10;;
54897;SDS011;40800;52.704;6.398;2023-05-17T10:11:04;11.75;;;3.03;;
54897;SDS011;40800;52.704;6.398;2023-05-17T10:16:17;9.60;;;2.88;;
54897;SDS011;40800;52.704;6.398;2023-05-17T10:18:46;10.73;;;2.83;;
54897;SDS011;40800;52.704;6.398;2023-05-17T10:21:13;10.63;;;3.05;;
54897;SDS011;40800;52.704;6.398;2023-05-17T10:23:39;11.05;;;3.30;;
54897;SDS011;40800;52.704;6.398;2023-05-17T10:26:08;10.45;;;2.90;;
54897;SDS011;40800;52.704;6.398;2023-05-17T10:28:34;11.32;;;2.95;;
54897;SDS011;40800;52.704;6.398;2023-05-17T10:31:01;12.98;;;3.00;;
54897;SDS011;40800;52.704;6.398;2023-05-17T10:33:27;9.45;;;2.80;;
54897;SDS011;40800;52.704;6.398;2023-05-17T10:35:55;8.43;;;2.75;;
54897;SDS011;40800;52.704;6.398;2023-05-17T10:38:22;10.85;;;3.03;;
54897;SDS011;40800;52.704;6.398;2023-05-17T10:40:48;7.67;;;2.80;;
54897;SDS011;40800;52.704;6.398;2023-05-17T10:43:16;9.23;;;2.63;;
54897;SDS011;40800;52.704;6.398;2023-05-17T10:45:43;8.23;;;2.70;;
54897;SDS011;40800;52.704;6.398;2023-05-17T10:48:09;8.13;;;3.00;;
54897;SDS011;40800;52.704;6.398;2023-05-17T10:50:38;9.85;;;3.10;;
54897;SDS011;40800;52.704;6.398;2023-05-17T10:53:06;8.48;;;2.80;;
54897;SDS011;40800;52.704;6.398;2023-05-17T10:55:38;13.55;;;3.60;;
54897;SDS011;40800;52.704;6.398;2023-05-17T11:00:38;11.68;;;3.15;;
54897;SDS011;40800;52.704;6.398;2023-05-17T11:08:34;8.63;;;3.10;;
54897;SDS011;40800;52.704;6.398;2023-05-17T11:11:11;8.32;;;2.97;;
54897;SDS011;40800;52.704;6.398;2023-05-17T11:16:14;7.90;;;2.70;;
54897;SDS011;40800;52.704;6.398;2023-05-17T11:18:50;8.05;;;2.92;;
54897;SDS011;40800;52.704;6.398;2023-05-17T11:21:22;9.20;;;2.90;;
54897;SDS011;40800;52.704;6.398;2023-05-17T11:23:54;10.15;;;2.75;;
54897;SDS011;40800;52.704;6.398;2023-05-17T11:29:03;9.88;;;2.75;;
54897;SDS011;40800;52.704;6.398;2023-05-17T11:31:35;7.82;;;2.60;;
54897;SDS011;40800;52.704;6.398;2023-05-17T11:34:02;6.85;;;2.60;;
54897;SDS011;40800;52.704;6.398;2023-05-17T11:36:28;9.00;;;3.20;;
54897;SDS011;40800;52.704;6.398;2023-05-17T11:39:13;10.70;;;2.88;;
54897;SDS011;40800;52.704;6.398;2023-05-17T11:41:48;269.63;;;17.75;;
54897;SDS011;40800;52.704;6.398;2023-05-17T11:44:30;48.47;;;5.47;;
54897;SDS011;40800;52.704;6.398;2023-05-17T11:47:00;275.13;;;23.88;;
54897;SDS011;40800;52.704;6.398;2023-05-17T11:49:31;62.88;;;6.47;;
54897;SDS011;40800;52.704;6.398;2023-05-17T11:51:58;29.33;;;4.95;;
54897;SDS011;40800;52.704;6.398;2023-05-17T11:54:24;30.90;;;4.05;;
54897;SDS011;40800;52.704;6.398;2023-05-17T11:56:51;21.67;;;4.10;;
54897;SDS011;40800;52.704;6.398;2023-05-17T11:59:21;10.35;;;2.58;;
54897;SDS011;40800;52.704;6.398;2023-05-17T12:01:48;10.73;;;2.83;;
54897;SDS011;40800;52.704;6.398;2023-05-17T12:04:24;11.65;;;3.10;;
54897;SDS011;40800;52.704;6.398;2023-05-17T12:06:51;9.55;;;2.72;;
54897;SDS011;40800;52.704;6.398;2023-05-17T12:09:18;9.70;;;3.30;;
54897;SDS011;40800;52.704;6.398;2023-05-17T12:11:43;7.63;;;2.55;;
54897;SDS011;40800;52.704;6.398;2023-05-17T12:14:09;8.38;;;2.53;;
54897;SDS011;40800;52.704;6.398;2023-05-17T12:16:40;7.75;;;2.50;;
54897;SDS011;40800;52.704;6.398;2023-05-17T12:19:21;8.25;;;2.75;;
54897;SDS011;40800;52.704;6.398;2023-05-17T12:21:49;9.40;;;2.83;;
54897;SDS011;40800;52.704;6.398;2023-05-17T12:24:15;8.20;;;2.83;;
54897;SDS011;40800;52.704;6.398;2023-05-17T12:26:41;12.57;;;2.67;;
54897;SDS011;40800;52.704;6.398;2023-05-17T12:29:08;8.32;;;2.28;;
54897;SDS011;40800;52.704;6.398;2023-05-17T12:31:47;6.47;;;2.55;;
54897;SDS011;40800;52.704;6.398;2023-05-17T12:34:15;9.10;;;2.50;;
54897;SDS011;40800;52.704;6.398;2023-05-17T12:36:42;10.98;;;3.05;;
54897;SDS011;40800;52.704;6.398;2023-05-17T12:39:08;7.47;;;2.40;;
54897;SDS011;40800;52.704;6.398;2023-05-17T12:41:36;6.80;;;2.33;;
54897;SDS011;40800;52.704;6.398;2023-05-17T12:44:02;6.75;;;2.45;;
54897;SDS011;40800;52.704;6.398;2023-05-17T12:46:29;8.40;;;2.40;;
54897;SDS011;40800;52.704;6.398;2023-05-17T12:48:55;7.97;;;2.60;;
54897;SDS011;40800;52.704;6.398;2023-05-17T12:51:28;6.18;;;2.45;;
54897;SDS011;40800;52.704;6.398;2023-05-17T12:54:05;7.82;;;2.50;;
54897;SDS011;40800;52.704;6.398;2023-05-17T12:56:30;10.35;;;2.75;;
54897;SDS011;40800;52.704;6.398;2023-05-17T12:59:15;6.47;;;2.40;;
54897;SDS011;40800;52.704;6.398;2023-05-17T13:04:09;6.10;;;2.35;;
54897;SDS011;40800;52.704;6.398;2023-05-17T13:06:52;8.50;;;2.80;;
54897;SDS011;40800;52.704;6.398;2023-05-17T13:09:22;7.15;;;2.47;;
54897;SDS011;40800;52.704;6.398;2023-05-17T13:14:31;10.23;;;2.80;;
54897;SDS011;40800;52.704;6.398;2023-05-17T13:17:07;7.05;;;2.30;;
54897;SDS011;40800;52.704;6.398;2023-05-17T13:19:34;9.65;;;2.70;;
54897;SDS011;40800;52.704;6.398;2023-05-17T13:22:00;7.82;;;2.85;;
54897;SDS011;40800;52.704;6.398;2023-05-17T13:24:29;8.32;;;2.45;;
54897;SDS011;40800;52.704;6.398;2023-05-17T13:26:57;6.43;;;2.42;;
54897;SDS011;40800;52.704;6.398;2023-05-17T13:29:23;7.57;;;2.60;;
54897;SDS011;40800;52.704;6.398;2023-05-17T13:31:48;7.90;;;2.70;;
54897;SDS011;40800;52.704;6.398;2023-05-17T13:34:14;8.27;;;2.80;;
54897;SDS011;40800;52.704;6.398;2023-05-17T13:36:40;7.45;;;2.60;;
54897;SDS011;40800;52.704;6.398;2023-05-17T13:39:07;8.77;;;2.75;;
54897;SDS011;40800;52.704;6.398;2023-05-17T13:41:32;6.17;;;2.50;;
54897;SDS011;40800;52.704;6.398;2023-05-17T13:43:58;8.60;;;2.78;;
54897;SDS011;40800;52.704;6.398;2023-05-17T13:46:24;9.03;;;2.67;;
54897;SDS011;40800;52.704;6.398;2023-05-17T13:48:49;11.63;;;2.90;;
54897;SDS011;40800;52.704;6.398;2023-05-17T13:51:15;6.50;;;2.40;;
54897;SDS011;40800;52.704;6.398;2023-05-17T13:53:40;10.82;;;2.92;;
54897;SDS011;40800;52.704;6.398;2023-05-17T13:56:06;8.60;;;2.88;;
54897;SDS011;40800;52.704;6.398;2023-05-17T13:58:32;8.07;;;2.80;;
54897;SDS011;40800;52.704;6.398;2023-05-17T14:00:58;9.77;;;2.92;;
54897;SDS011;40800;52.704;6.398;2023-05-17T14:03:23;6.80;;;2.20;;
54897;SDS011;40800;52.704;6.398;2023-05-17T14:05:49;9.23;;;2.65;;
54897;SDS011;40800;52.704;6.398;2023-05-17T14:08:16;15.05;;;2.88;;
54897;SDS011;40800;52.704;6.398;2023-05-17T14:10:42;6.33;;;2.40;;
54897;SDS011;40800;52.704;6.398;2023-05-17T14:13:08;8.85;;;2.85;;
54897;SDS011;40800;52.704;6.398;2023-05-17T14:15:35;8.32;;;2.60;;
54897;SDS011;40800;52.704;6.398;2023-05-17T14:18:06;9.48;;;2.60;;
54897;SDS011;40800;52.704;6.398;2023-05-17T14:20:31;8.18;;;2.95;;
54897;SDS011;40800;52.704;6.398;2023-05-17T14:22:58;6.18;;;2.40;;
54897;SDS011;40800;52.704;6.398;2023-05-17T14:25:23;7.03;;;2.63;;
54897;SDS011;40800;52.704;6.398;2023-05-17T14:27:50;7.25;;;3.03;;
54897;SDS011;40800;52.704;6.398;2023-05-17T14:30:16;7.13;;;2.63;;
54897;SDS011;40800;52.704;6.398;2023-05-17T14:32:41;7.93;;;2.75;;
54897;SDS011;40800;52.704;6.398;2023-05-17T14:35:07;7.60;;;2.37;;
54897;SDS011;40800;52.704;6.398;2023-05-17T14:37:34;7.03;;;2.33;;
54897;SDS011;40800;52.704;6.398;2023-05-17T14:40:00;8.00;;;2.87;;
54897;SDS011;40800;52.704;6.398;2023-05-17T14:42:26;8.23;;;2.67;;
54897;SDS011;40800;52.704;6.398;2023-05-17T14:44:51;6.30;;;2.30;;
54897;SDS011;40800;52.704;6.398;2023-05-17T14:47:17;7.20;;;2.40;;
54897;SDS011;40800;52.704;6.398;2023-05-17T14:49:45;5.38;;;2.45;;
54897;SDS011;40800;52.704;6.398;2023-05-17T14:52:11;8.30;;;2.60;;
54897;SDS011;40800;52.704;6.398;2023-05-17T14:54:37;6.13;;;2.33;;
54897;SDS011;40800;52.704;6.398;2023-05-17T14:57:04;6.75;;;2.28;;
54897;SDS011;40800;52.704;6.398;2023-05-17T14:59:30;7.90;;;2.80;;
54897;SDS011;40800;52.704;6.398;2023-05-17T15:01:56;6.53;;;2.30;;
54897;SDS011;40800;52.704;6.398;2023-05-17T15:04:22;6.03;;;2.30;;
54897;SDS011;40800;52.704;6.398;2023-05-17T15:06:48;7.22;;;2.63;;
54897;SDS011;40800;52.704;6.398;2023-05-17T15:09:15;11.15;;;2.47;;